Time;durP1;ratioP1;P1;durP2;ratioP2;P2;SDS_P1;SDS_P2;PMS_P1;PMS_P2;Temp;Humidity;BMP_temperature;BMP_pressure;BME280_temperature;BME280_humidity;BME280_pressure;Samples;Min_cycle;Max_cycle;Signal;HPM_P1;HPM_P2
2022/07/13 00:02:25;;;;;;;1.10;1.00;;;18.80;99.90;;;;;;5019764;28;20399;-72
2022/07/13 00:04:50;;;;;;;0.40;0.20;;;18.80;99.90;;;;;;5030283;28;20441;-72
2022/07/13 00:07:16;;;;;;;0.40;0.30;;;18.70;99.90;;;;;;5014308;28;20459;-72
2022/07/13 00:09:42;;;;;;;0.40;0.30;;;18.70;99.90;;;;;;5026860;28;20748;-72
2022/07/13 00:12:07;;;;;;;0.40;0.20;;;18.60;99.90;;;;;;5023420;28;20408;-73
2022/07/13 00:14:33;;;;;;;0.40;0.30;;;18.60;99.90;;;;;;5027563;28;20391;-72
2022/07/13 00:16:59;;;;;;;0.40;0.30;;;18.50;99.90;;;;;;5031453;28;20394;-72
2022/07/13 00:19:25;;;;;;;1.00;0.70;;;18.50;99.90;;;;;;5030606;28;20925;-72
2022/07/13 00:21:54;;;;;;;0.40;0.20;;;18.50;99.90;;;;;;5031350;28;20398;-72
2022/07/13 00:24:20;;;;;;;0.40;0.30;;;18.50;99.90;;;;;;5030776;28;20478;-72
2022/07/13 00:26:46;;;;;;;0.40;0.20;;;18.50;99.90;;;;;;5020402;28;20416;-72
2022/07/13 00:29:12;;;;;;;0.40;0.30;;;18.50;99.90;;;;;;5024947;28;20752;-73
2022/07/13 00:31:37;;;;;;;0.40;0.20;;;18.60;99.90;;;;;;5024259;28;20404;-72
2022/07/13 00:34:03;;;;;;;0.40;0.20;;;18.60;99.90;;;;;;4994594;28;20921;-72
2022/07/13 00:36:28;;;;;;;0.40;0.30;;;18.60;99.90;;;;;;5012038;28;20499;-72
2022/07/13 00:38:54;;;;;;;0.40;0.20;;;18.70;99.90;;;;;;5018994;28;20387;-72
2022/07/13 00:41:20;;;;;;;0.40;0.20;;;18.60;99.90;;;;;;5029041;28;20751;-72
2022/07/13 00:43:45;;;;;;;0.40;0.20;;;18.60;99.90;;;;;;5022538;28;20403;-72
2022/07/13 00:46:11;;;;;;;0.40;0.20;;;18.50;99.90;;;;;;5016693;28;20484;-73
2022/07/13 00:48:38;;;;;;;0.40;0.20;;;18.50;99.90;;;;;;4998983;28;20418;-72
2022/07/13 00:51:05;;;;;;;0.40;0.20;;;18.50;99.90;;;;;;5031138;28;20402;-72
2022/07/13 00:53:32;;;;;;;0.40;0.20;;;18.50;99.90;;;;;;5030100;28;20482;-73
2022/07/13 00:55:58;;;;;;;0.40;0.20;;;18.50;99.90;;;;;;5011416;28;20419;-72
2022/07/13 00:58:25;;;;;;;0.57;0.47;;;18.40;99.90;;;;;;5013609;28;20438;-72
2022/07/13 01:00:51;;;;;;;0.40;0.20;;;18.30;99.90;;;;;;5021033;28;20393;-72
2022/07/13 01:03:16;;;;;;;0.60;0.50;;;18.30;99.90;;;;;;5025616;28;20772;-72
2022/07/13 01:05:43;;;;;;;0.40;0.20;;;18.30;99.90;;;;;;5029568;28;20764;-72
2022/07/13 01:08:10;;;;;;;0.40;0.30;;;18.20;99.90;;;;;;5014166;28;20829;-72
2022/07/13 01:10:36;;;;;;;0.40;0.20;;;18.10;99.90;;;;;;5026781;28;20394;-72
2022/07/13 01:13:02;;;;;;;0.40;0.30;;;18.20;99.90;;;;;;5029101;28;20752;-72
2022/07/13 01:15:28;;;;;;;0.40;0.30;;;18.10;99.90;;;;;;5019290;28;20383;-72
2022/07/13 01:17:54;;;;;;;0.40;0.30;;;18.10;99.90;;;;;;5030641;28;20831;-71
2022/07/13 01:20:21;;;;;;;0.40;0.30;;;18.20;99.90;;;;;;5029199;28;20391;-72
2022/07/13 01:22:51;;;;;;;0.40;0.20;;;18.20;99.90;;;;;;5030592;28;20474;-72
2022/07/13 01:25:18;;;;;;;0.40;0.20;;;18.20;99.90;;;;;;5029774;28;20399;-72
2022/07/13 01:27:47;;;;;;;0.40;0.25;;;18.20;99.90;;;;;;5027932;28;20399;-72
2022/07/13 01:30:13;;;;;;;0.40;0.30;;;18.10;99.90;;;;;;5022150;28;20941;-72
2022/07/13 01:32:57;;;;;;;0.40;0.20;;;17.90;99.90;;;;;;5029313;28;20524;-72
2022/07/13 01:35:23;;;;;;;0.40;0.20;;;18.00;99.90;;;;;;5005192;28;20407;-72
2022/07/13 01:37:50;;;;;;;0.40;0.20;;;18.00;99.90;;;;;;5018548;28;20391;-72
2022/07/13 01:40:17;;;;;;;0.40;0.30;;;17.90;99.90;;;;;;5022397;28;20395;-73
2022/07/13 01:42:47;;;;;;;0.40;0.20;;;18.00;99.90;;;;;;5025427;28;20379;-72
2022/07/13 01:45:15;;;;;;;0.40;0.20;;;17.90;99.90;;;;;;5016141;28;20397;-71
2022/07/13 01:47:43;;;;;;;0.40;0.30;;;18.00;99.90;;;;;;5010574;28;20388;-72
2022/07/13 01:50:10;;;;;;;0.40;0.20;;;18.00;99.90;;;;;;5015776;28;20397;-72
2022/07/13 01:52:36;;;;;;;0.40;0.20;;;17.90;99.90;;;;;;5018187;28;20577;-71
2022/07/13 01:55:06;;;;;;;0.40;0.30;;;17.90;99.90;;;;;;5030285;28;20402;-72
2022/07/13 01:57:33;;;;;;;0.90;0.60;;;17.80;99.90;;;;;;5029588;28;20457;-72
2022/07/13 02:00:00;;;;;;;0.40;0.30;;;17.70;99.90;;;;;;5024357;28;20395;-71
2022/07/13 02:02:26;;;;;;;0.40;0.20;;;17.80;99.90;;;;;;5029247;28;20410;-72
2022/07/13 02:04:54;;;;;;;0.40;0.20;;;17.80;99.90;;;;;;5030276;28;20784;-72
2022/07/13 02:07:21;;;;;;;0.40;0.20;;;18.00;99.90;;;;;;5011937;28;20401;-72
2022/07/13 02:09:47;;;;;;;0.40;0.28;;;17.80;99.90;;;;;;5019678;28;20922;-72
2022/07/13 02:12:13;;;;;;;0.40;0.30;;;17.80;99.90;;;;;;5030306;28;20413;-72
2022/07/13 02:14:38;;;;;;;0.40;0.20;;;17.70;99.90;;;;;;5029316;28;21190;-72
2022/07/13 02:17:04;;;;;;;0.40;0.20;;;17.80;99.90;;;;;;5030486;28;20430;-72
2022/07/13 02:19:30;;;;;;;0.40;0.30;;;17.80;99.90;;;;;;5025769;28;20393;-72
2022/07/13 02:21:55;;;;;;;0.40;0.30;;;17.90;99.90;;;;;;5010662;28;20380;-72
2022/07/13 02:24:21;;;;;;;0.40;0.20;;;18.00;99.90;;;;;;5012579;28;20407;-72
2022/07/13 02:26:47;;;;;;;0.40;0.20;;;17.80;99.90;;;;;;5030352;28;20399;-72
2022/07/13 02:29:12;;;;;;;1.60;0.90;;;17.90;99.90;;;;;;5026945;28;20395;-72
2022/07/13 02:31:38;;;;;;;0.40;0.20;;;17.90;99.90;;;;;;5029171;28;20395;-72
2022/07/13 02:34:04;;;;;;;0.40;0.20;;;17.90;99.90;;;;;;5033611;28;20403;-72
2022/07/13 02:36:29;;;;;;;0.40;0.30;;;17.70;99.90;;;;;;5032941;28;20391;-72
2022/07/13 02:38:55;;;;;;;0.40;0.30;;;17.80;99.90;;;;;;5018920;28;20395;-72
2022/07/13 02:41:20;;;;;;;0.40;0.20;;;17.80;99.90;;;;;;5031256;28;20394;-73
2022/07/13 02:43:46;;;;;;;0.40;0.20;;;17.90;99.90;;;;;;5033396;28;20411;-72
2022/07/13 02:46:12;;;;;;;0.40;0.20;;;17.80;99.90;;;;;;5034141;28;20478;-72
2022/07/13 02:48:38;;;;;;;0.60;0.50;;;17.70;99.90;;;;;;5032915;28;20391;-72
2022/07/13 02:51:04;;;;;;;0.40;0.30;;;17.70;99.90;;;;;;5017810;28;20392;-72
2022/07/13 02:53:29;;;;;;;0.40;0.20;;;17.60;99.90;;;;;;5028334;28;20399;-72
2022/07/13 02:55:55;;;;;;;0.40;0.20;;;17.60;99.90;;;;;;5033424;28;20386;-72
2022/07/13 02:58:21;;;;;;;0.40;0.20;;;17.70;99.90;;;;;;4991624;28;20441;-73
2022/07/13 03:00:46;;;;;;;0.40;0.30;;;17.70;99.90;;;;;;4980728;28;20399;-72
2022/07/13 03:03:12;;;;;;;0.40;0.20;;;17.70;99.90;;;;;;4993539;28;20741;-72
2022/07/13 03:05:38;;;;;;;0.40;0.20;;;17.50;99.90;;;;;;4982712;28;21230;-72
2022/07/13 03:08:04;;;;;;;0.40;0.20;;;17.60;99.90;;;;;;4976797;28;20392;-72
2022/07/13 03:10:31;;;;;;;0.40;0.30;;;17.50;99.90;;;;;;4993150;28;20379;-72
2022/07/13 03:12:57;;;;;;;0.40;0.20;;;17.50;99.90;;;;;;4983746;28;20407;-72
2022/07/13 03:15:22;;;;;;;0.90;0.80;;;17.60;99.90;;;;;;4990322;28;20399;-73
2022/07/13 03:17:48;;;;;;;0.40;0.20;;;17.60;99.90;;;;;;4993622;28;20422;-72
2022/07/13 03:20:14;;;;;;;0.40;0.20;;;17.50;99.90;;;;;;4992210;28;20402;-72
2022/07/13 03:22:39;;;;;;;0.40;0.20;;;17.50;99.90;;;;;;4992998;28;20442;-72
2022/07/13 03:25:06;;;;;;;0.40;0.20;;;17.60;99.90;;;;;;4982703;28;20463;-72
2022/07/13 03:27:31;;;;;;;0.40;0.30;;;17.60;99.90;;;;;;4974546;28;20455;-72
2022/07/13 03:29:57;;;;;;;0.40;0.28;;;17.60;99.90;;;;;;4979589;28;20399;-72
2022/07/13 03:32:23;;;;;;;0.40;0.20;;;17.50;99.90;;;;;;4991268;28;20390;-74
2022/07/13 03:34:48;;;;;;;0.60;0.50;;;17.50;99.90;;;;;;4987292;28;20452;-72
2022/07/13 03:37:14;;;;;;;0.40;0.30;;;17.40;99.90;;;;;;4977661;28;20397;-72
2022/07/13 03:39:40;;;;;;;0.40;0.20;;;17.50;99.90;;;;;;4971916;28;20400;-72
2022/07/13 03:42:06;;;;;;;0.40;0.20;;;17.30;99.90;;;;;;4973980;28;20394;-72
2022/07/13 03:44:31;;;;;;;0.40;0.20;;;17.20;99.90;;;;;;4977079;28;20469;-72
2022/07/13 03:47:00;;;;;;;0.40;0.23;;;17.20;99.90;;;;;;4985096;28;20440;-72
2022/07/13 03:49:26;;;;;;;0.40;0.20;;;17.10;99.90;;;;;;4974126;28;20428;-73
2022/07/13 03:51:52;;;;;;;0.40;0.20;;;17.00;99.90;;;;;;4976064;28;20474;-72
2022/07/13 03:54:17;;;;;;;0.40;0.20;;;17.00;99.90;;;;;;4992506;28;20889;-72
2022/07/13 03:56:43;;;;;;;0.40;0.20;;;16.90;99.90;;;;;;4985001;28;20407;-72
2022/07/13 03:59:09;;;;;;;0.40;0.30;;;16.90;99.90;;;;;;5015461;28;20763;-72
2022/07/13 04:01:35;;;;;;;0.90;0.90;;;16.80;99.90;;;;;;5019593;28;20407;-72
2022/07/13 04:04:01;;;;;;;0.40;0.30;;;16.60;99.90;;;;;;5031978;28;20415;-72
2022/07/13 04:06:26;;;;;;;0.40;0.30;;;16.70;99.90;;;;;;5029471;28;20868;-73
2022/07/13 04:08:52;;;;;;;0.40;0.20;;;16.60;99.90;;;;;;5031988;28;20910;-72
2022/07/13 04:11:18;;;;;;;0.40;0.30;;;16.60;99.90;;;;;;5024701;28;20477;-72
2022/07/13 04:13:44;;;;;;;0.70;0.70;;;16.60;99.90;;;;;;5011627;28;20400;-72
2022/07/13 04:16:09;;;;;;;0.40;0.20;;;16.60;99.90;;;;;;5028532;28;20394;-72
2022/07/13 04:18:35;;;;;;;0.40;0.20;;;16.50;99.90;;;;;;5028936;28;20391;-72
2022/07/13 04:21:01;;;;;;;0.40;0.20;;;16.60;99.90;;;;;;5031565;28;20880;-72
2022/07/13 04:23:30;;;;;;;0.40;0.20;;;16.50;99.90;;;;;;5023541;28;20412;-73
2022/07/13 04:25:57;;;;;;;0.40;0.20;;;16.50;99.90;;;;;;5012291;28;20778;-72
2022/07/13 04:28:23;;;;;;;0.40;0.20;;;16.60;99.90;;;;;;5029459;28;20436;-72
2022/07/13 04:30:49;;;;;;;0.40;0.30;;;16.40;99.90;;;;;;5003555;28;20423;-72
2022/07/13 04:33:15;;;;;;;0.40;0.20;;;16.50;99.90;;;;;;5012059;28;20393;-72
2022/07/13 04:35:40;;;;;;;0.40;0.20;;;16.50;99.90;;;;;;5024136;28;20846;-72
2022/07/13 04:38:06;;;;;;;0.40;0.20;;;16.50;99.90;;;;;;5031433;28;20427;-72
2022/07/13 04:40:32;;;;;;;0.40;0.20;;;16.40;99.90;;;;;;5030505;28;20402;-72
2022/07/13 04:42:57;;;;;;;0.40;0.30;;;16.30;99.90;;;;;;5031458;28;20785;-71
2022/07/13 04:45:23;;;;;;;0.40;0.30;;;16.40;99.90;;;;;;5024141;28;20407;-71
2022/07/13 04:47:49;;;;;;;0.40;0.20;;;16.40;99.90;;;;;;5025077;28;20387;-72
2022/07/13 04:50:15;;;;;;;0.50;0.40;;;16.30;99.90;;;;;;5031200;28;20383;-71
2022/07/13 04:52:40;;;;;;;0.40;0.30;;;16.50;99.90;;;;;;5025561;28;20395;-72
2022/07/13 04:55:07;;;;;;;0.40;0.27;;;16.40;99.90;;;;;;5030198;28;20399;-72
2022/07/13 04:57:33;;;;;;;0.40;0.20;;;16.60;99.90;;;;;;5016228;28;20765;-72
2022/07/13 04:59:59;;;;;;;0.40;0.20;;;16.60;99.90;;;;;;5011642;28;20532;-72
2022/07/13 05:02:25;;;;;;;0.40;0.20;;;16.60;99.90;;;;;;5029496;28;20399;-72
2022/07/13 05:04:50;;;;;;;0.40;0.20;;;16.70;99.90;;;;;;5028793;28;20419;-71
2022/07/13 05:07:16;;;;;;;0.40;0.20;;;16.70;99.90;;;;;;5015194;28;20439;-72
2022/07/13 05:09:42;;;;;;;0.43;0.28;;;16.70;99.90;;;;;;5014324;28;20413;-72
2022/07/13 05:12:08;;;;;;;0.40;0.20;;;16.80;99.90;;;;;;5011295;28;20727;-72
2022/07/13 05:14:35;;;;;;;0.40;0.20;;;16.80;99.90;;;;;;5010591;28;20416;-72
2022/07/13 05:17:01;;;;;;;0.40;0.20;;;16.90;99.90;;;;;;5027443;28;20414;-72
2022/07/13 05:19:26;;;;;;;0.40;0.20;;;16.90;99.90;;;;;;5021741;28;20742;-73
2022/07/13 05:21:52;;;;;;;0.60;0.60;;;17.00;99.90;;;;;;5010343;28;20505;-72
2022/07/13 05:24:18;;;;;;;0.40;0.30;;;17.10;99.90;;;;;;5026700;28;20411;-72
2022/07/13 05:26:44;;;;;;;0.40;0.20;;;17.30;99.90;;;;;;5016530;28;20433;-72
2022/07/13 05:29:09;;;;;;;0.40;0.20;;;17.60;99.90;;;;;;5012198;28;20451;-72
2022/07/13 05:31:35;;;;;;;0.40;0.20;;;17.80;99.90;;;;;;5012011;28;20397;-72
2022/07/13 05:34:01;;;;;;;0.40;0.20;;;18.00;99.90;;;;;;5016476;28;20400;-72
2022/07/13 05:36:27;;;;;;;0.40;0.20;;;18.00;99.90;;;;;;5020998;28;20421;-73
2022/07/13 05:38:53;;;;;;;0.40;0.30;;;18.10;99.90;;;;;;5015303;28;20756;-72
2022/07/13 05:41:18;;;;;;;0.40;0.30;;;18.10;99.90;;;;;;5024969;28;20852;-72
2022/07/13 05:43:44;;;;;;;0.40;0.20;;;18.20;99.90;;;;;;5016907;28;20449;-72
2022/07/13 05:46:10;;;;;;;0.40;0.20;;;18.30;99.90;;;;;;5022542;28;20756;-72
2022/07/13 05:48:36;;;;;;;0.40;0.30;;;18.30;99.90;;;;;;5024580;28;20391;-72
2022/07/13 05:51:02;;;;;;;0.40;0.30;;;18.20;99.90;;;;;;5021600;28;20826;-72
2022/07/13 05:53:27;;;;;;;0.40;0.30;;;18.40;99.90;;;;;;5013852;28;20746;-71
2022/07/13 05:55:53;;;;;;;0.40;0.30;;;18.70;99.90;;;;;;5009935;28;20404;-71
2022/07/13 05:58:20;;;;;;;0.40;0.30;;;18.80;99.90;;;;;;5025195;28;20887;-71
2022/07/13 06:00:46;;;;;;;0.40;0.30;;;18.90;99.90;;;;;;5026493;28;20403;-71
2022/07/13 06:03:12;;;;;;;0.40;0.20;;;19.10;99.90;;;;;;5019002;28;20857;-71
2022/07/13 06:05:38;;;;;;;0.40;0.30;;;19.30;99.90;;;;;;5010061;28;20964;-71
2022/07/13 06:08:04;;;;;;;0.40;0.20;;;19.30;99.90;;;;;;5029257;28;20403;-71
2022/07/13 06:10:30;;;;;;;0.70;0.70;;;19.30;99.90;;;;;;5033923;28;20478;-71
2022/07/13 06:12:55;;;;;;;0.40;0.40;;;19.30;99.90;;;;;;5023426;28;20880;-70
2022/07/13 06:15:21;;;;;;;0.40;0.30;;;19.40;99.90;;;;;;5024608;28;20395;-71
2022/07/13 06:17:47;;;;;;;0.40;0.30;;;19.50;99.90;;;;;;5028953;28;20867;-70
2022/07/13 06:20:12;;;;;;;0.40;0.20;;;19.60;99.90;;;;;;5032878;28;20482;-71
2022/07/13 06:22:38;;;;;;;0.40;0.30;;;19.70;99.90;;;;;;5032528;28;20418;-71
2022/07/13 06:25:04;;;;;;;0.40;0.20;;;19.90;99.90;;;;;;5015691;28;20480;-71
2022/07/13 06:27:30;;;;;;;0.40;0.30;;;19.90;99.90;;;;;;5033947;28;20391;-71
2022/07/13 06:29:57;;;;;;;0.40;0.20;;;20.10;99.90;;;;;;5033467;28;20441;-71
2022/07/13 06:32:22;;;;;;;0.40;0.20;;;20.20;99.90;;;;;;5033948;28;20383;-71
2022/07/13 06:34:48;;;;;;;0.40;0.40;;;20.30;99.90;;;;;;5033196;28;20410;-71
2022/07/13 06:37:14;;;;;;;1.10;1.10;;;20.30;99.90;;;;;;5034191;28;20432;-72
2022/07/13 06:39:39;;;;;;;0.40;0.30;;;20.30;99.90;;;;;;5033118;28;20394;-72
2022/07/13 06:42:05;;;;;;;0.40;0.23;;;20.30;99.90;;;;;;5034017;28;20375;-71
2022/07/13 06:44:31;;;;;;;0.40;0.20;;;20.30;99.90;;;;;;5033666;28;20411;-71
2022/07/13 06:46:59;;;;;;;0.40;0.20;;;20.40;99.90;;;;;;5033086;28;20879;-72
2022/07/13 06:49:26;;;;;;;0.40;0.20;;;20.40;99.90;;;;;;5033518;28;20864;-71
2022/07/13 06:51:54;;;;;;;0.40;0.30;;;20.60;99.90;;;;;;5032776;28;20902;-71
2022/07/13 06:54:20;;;;;;;0.40;0.20;;;20.80;99.90;;;;;;5033596;28;20421;-71
2022/07/13 06:56:46;;;;;;;0.40;0.30;;;21.00;98.90;;;;;;5033100;28;20457;-71
2022/07/13 06:59:12;;;;;;;0.40;0.30;;;21.20;98.30;;;;;;5033129;28;20411;-72
2022/07/13 07:01:37;;;;;;;0.40;0.30;;;21.50;95.90;;;;;;5032607;28;20379;-72
2022/07/13 07:04:03;;;;;;;0.40;0.30;;;21.60;95.80;;;;;;5033391;28;20455;-72
2022/07/13 07:06:29;;;;;;;0.40;0.30;;;21.70;96.40;;;;;;5033340;28;20395;-72
2022/07/13 07:08:54;;;;;;;0.40;0.30;;;21.70;95.90;;;;;;5032553;28;20390;-72
2022/07/13 07:11:20;;;;;;;0.40;0.30;;;21.80;96.10;;;;;;5033190;28;20394;-71
2022/07/13 07:13:46;;;;;;;0.90;0.50;;;22.00;95.20;;;;;;5032424;28;20388;-72
2022/07/13 07:16:12;;;;;;;0.40;0.20;;;22.10;94.40;;;;;;5033232;28;20403;-71
2022/07/13 07:18:37;;;;;;;0.40;0.20;;;22.20;93.50;;;;;;5031853;28;20851;-72
2022/07/13 07:21:03;;;;;;;0.40;0.30;;;22.30;93.20;;;;;;5033206;28;20425;-71
2022/07/13 07:23:29;;;;;;;0.40;0.20;;;22.50;92.00;;;;;;5033010;28;20415;-71
2022/07/13 07:25:54;;;;;;;0.40;0.30;;;22.50;92.50;;;;;;5032574;28;20383;-71
2022/07/13 07:28:20;;;;;;;0.40;0.20;;;22.60;91.90;;;;;;5015224;28;20413;-71
2022/07/13 07:30:46;;;;;;;0.40;0.22;;;22.60;91.30;;;;;;5032262;28;20379;-72
2022/07/13 07:33:12;;;;;;;0.40;0.30;;;22.70;91.30;;;;;;5032870;28;20713;-71
2022/07/13 07:35:37;;;;;;;0.40;0.20;;;22.80;92.10;;;;;;5032323;28;20783;-72
2022/07/13 07:38:03;;;;;;;0.40;0.30;;;23.00;91.80;;;;;;5032713;28;20759;-72
2022/07/13 07:40:29;;;;;;;0.40;0.20;;;23.30;91.20;;;;;;5032597;28;20872;-72
2022/07/13 07:42:55;;;;;;;0.40;0.20;;;23.30;90.50;;;;;;5031706;28;20390;-71
2022/07/13 07:45:21;;;;;;;0.40;0.30;;;23.20;90.90;;;;;;5032742;28;20426;-72
2022/07/13 07:47:47;;;;;;;0.40;0.20;;;23.20;90.30;;;;;;5031806;28;20376;-72
2022/07/13 07:50:12;;;;;;;0.40;0.20;;;23.20;89.70;;;;;;5032624;28;20413;-71
2022/07/13 07:52:38;;;;;;;0.40;0.30;;;23.20;90.30;;;;;;5023182;28;20472;-72
2022/07/13 07:55:04;;;;;;;0.40;0.30;;;23.20;89.00;;;;;;5013859;28;20395;-72
2022/07/13 07:57:30;;;;;;;0.40;0.30;;;23.30;89.90;;;;;;5016619;28;20970;-71
2022/07/13 07:59:55;;;;;;;0.40;0.22;;;23.60;88.60;;;;;;5031477;28;20498;-71
2022/07/13 08:02:21;;;;;;;0.40;0.30;;;23.70;88.00;;;;;;5031779;28;20450;-72
2022/07/13 08:04:49;;;;;;;0.40;0.20;;;23.70;88.10;;;;;;5026667;28;20410;-71
2022/07/13 08:07:14;;;;;;;0.40;0.20;;;23.70;87.40;;;;;;5012095;28;20397;-71
2022/07/13 08:09:40;;;;;;;0.40;0.20;;;23.70;86.40;;;;;;5011466;28;20373;-73
2022/07/13 08:12:06;;;;;;;0.40;0.30;;;23.90;86.00;;;;;;5016616;28;20797;-72
2022/07/13 08:14:32;;;;;;;0.40;0.30;;;24.10;86.90;;;;;;5016925;28;20405;-72
2022/07/13 08:16:59;;;;;;;0.40;0.20;;;24.30;86.50;;;;;;5025338;28;20501;-72
2022/07/13 08:19:24;;;;;;;0.40;0.30;;;24.40;85.80;;;;;;5022751;28;20379;-71
2022/07/13 08:21:50;;;;;;;0.40;0.30;;;24.40;84.30;;;;;;5008775;28;20408;-71
2022/07/13 08:24:16;;;;;;;0.40;0.30;;;24.50;83.90;;;;;;5023648;28;20416;-71
2022/07/13 08:26:42;;;;;;;0.40;0.30;;;24.60;84.20;;;;;;5018332;28;20446;-72
2022/07/13 08:29:08;;;;;;;0.40;0.30;;;24.60;83.60;;;;;;5013032;28;20407;-71
2022/07/13 08:31:34;;;;;;;0.40;0.30;;;24.70;81.90;;;;;;5028983;28;20399;-72
2022/07/13 08:39:28;;;;;;;0.40;0.27;;;25.00;79.70;;;;;;5022372;28;20452;-71
2022/07/13 08:41:59;;;;;;;0.40;0.30;;;25.10;77.80;;;;;;5019731;28;20395;-72
2022/07/13 08:44:25;;;;;;;0.40;0.30;;;25.00;80.30;;;;;;5020279;28;20511;-71
2022/07/13 08:46:51;;;;;;;0.40;0.20;;;25.00;81.80;;;;;;5012894;28;20875;-72
2022/07/13 08:49:18;;;;;;;0.40;0.30;;;24.80;82.10;;;;;;5018058;28;20408;-72
2022/07/13 08:51:45;;;;;;;0.40;0.30;;;24.90;81.10;;;;;;5012372;28;20444;-72
2022/07/13 08:54:12;;;;;;;0.40;0.30;;;25.00;79.70;;;;;;5031462;28;20398;-72
2022/07/13 08:56:40;;;;;;;0.40;0.30;;;25.00;78.70;;;;;;5011702;28;20397;-72
2022/07/13 08:59:07;;;;;;;0.40;0.20;;;24.90;78.70;;;;;;5010721;28;20404;-72
2022/07/13 09:01:32;;;;;;;0.43;0.32;;;25.00;79.40;;;;;;5017835;28;20501;-71
2022/07/13 09:03:58;;;;;;;0.40;0.30;;;25.10;80.10;;;;;;5011926;28;20948;-74
2022/07/13 09:06:39;;;;;;;0.40;0.20;;;25.20;77.50;;;;;;5011547;28;20419;-73
2022/07/13 09:09:06;;;;;;;0.40;0.20;;;25.30;77.00;;;;;;5011137;28;20397;-73
2022/07/13 09:11:32;;;;;;;0.40;0.30;;;25.30;78.10;;;;;;5011409;28;20387;-73
2022/07/13 09:13:58;;;;;;;0.40;0.20;;;25.30;77.40;;;;;;5010551;28;20737;-73
2022/07/13 09:16:25;;;;;;;0.40;0.20;;;25.20;79.70;;;;;;5011425;28;20381;-71
2022/07/13 09:18:58;;;;;;;0.40;0.20;;;25.20;75.50;;;;;;5010520;28;20384;-72
2022/07/13 09:21:24;;;;;;;0.40;0.20;;;25.30;75.60;;;;;;5011370;28;20384;-71
2022/07/13 09:23:55;;;;;;;0.40;0.30;;;25.30;75.20;;;;;;5010286;28;20856;-73
2022/07/13 09:26:23;;;;;;;0.40;0.30;;;25.40;72.70;;;;;;5011228;28;20396;-71
2022/07/13 09:28:51;;;;;;;0.40;0.30;;;25.60;71.00;;;;;;5010235;28;20458;-73
2022/07/13 09:31:18;;;;;;;0.40;0.30;;;25.60;72.10;;;;;;5011266;28;20381;-73
2022/07/13 09:33:45;;;;;;;0.40;0.20;;;25.50;73.50;;;;;;5010633;28;20446;-72
2022/07/13 09:36:12;;;;;;;0.80;0.50;;;25.40;74.60;;;;;;5011029;28;20420;-72
2022/07/13 09:38:43;;;;;;;0.40;0.30;;;25.60;74.90;;;;;;5011013;28;20475;-72
2022/07/13 09:41:17;;;;;;;0.40;0.20;;;25.50;73.30;;;;;;5010166;28;20402;-73
2022/07/13 09:46:58;;;;;;;1.50;1.40;;;25.70;71.10;;;;;;5010700;28;20536;-75
2022/07/13 09:49:41;;;;;;;0.40;0.30;;;25.70;72.60;;;;;;5011019;28;20431;-72
2022/07/13 09:52:18;;;;;;;0.40;0.30;;;26.10;71.90;;;;;;5014460;28;20397;-73
2022/07/13 09:54:54;;;;;;;0.40;0.30;;;26.30;70.80;;;;;;5030382;28;20739;-74
2022/07/13 09:57:23;;;;;;;0.45;0.43;;;26.30;71.80;;;;;;5030470;28;20395;-73
2022/07/13 09:59:52;;;;;;;0.40;0.30;;;26.10;70.90;;;;;;5029012;28;20473;-73
2022/07/13 10:02:19;;;;;;;0.40;0.30;;;26.30;71.90;;;;;;5030775;28;20390;-68
2022/07/13 10:04:47;;;;;;;0.40;0.20;;;26.70;71.40;;;;;;5030142;28;20453;-74
2022/07/13 10:07:14;;;;;;;0.40;0.30;;;26.80;70.50;;;;;;5030495;28;20379;-73
2022/07/13 10:09:39;;;;;;;0.40;0.20;;;26.50;71.70;;;;;;5030413;28;20445;-73
2022/07/13 10:12:07;;;;;;;0.40;0.20;;;26.50;72.10;;;;;;5029238;28;20375;-72
2022/07/13 10:14:33;;;;;;;0.40;0.20;;;26.60;72.10;;;;;;5017869;28;20443;-72
2022/07/13 10:17:10;;;;;;;0.40;0.20;;;26.70;72.00;;;;;;5023691;28;20437;-71
2022/07/13 10:19:47;;;;;;;0.40;0.20;;;26.90;70.20;;;;;;5019410;28;20480;-72
2022/07/13 10:22:22;;;;;;;0.40;0.20;;;27.20;70.00;;;;;;5003613;28;20475;-72
2022/07/13 10:24:57;;;;;;;0.40;0.20;;;27.30;68.20;;;;;;5026111;28;20497;-74
2022/07/13 10:27:26;;;;;;;0.40;0.30;;;27.30;69.50;;;;;;5024509;28;20982;-72
2022/07/13 10:29:59;;;;;;;0.40;0.30;;;27.40;66.60;;;;;;5027980;28;20482;-71
2022/07/13 10:32:26;;;;;;;0.40;0.20;;;27.40;67.00;;;;;;5019453;28;20395;-67
2022/07/13 10:35:04;;;;;;;0.70;0.60;;;27.50;65.00;;;;;;5028987;28;20726;-69
2022/07/13 10:37:55;;;;;;;0.40;0.30;;;27.50;64.50;;;;;;5026694;28;20446;-71
2022/07/13 10:40:24;;;;;;;0.40;0.20;;;27.30;65.40;;;;;;5029255;28;20379;-71
2022/07/13 10:43:00;;;;;;;0.40;0.20;;;27.30;63.70;;;;;;5028752;28;20379;-72
2022/07/13 10:45:52;;;;;;;0.40;0.20;;;27.40;63.20;;;;;;5029964;28;20398;-70
2022/07/13 10:48:30;;;;;;;0.40;0.20;;;27.40;61.90;;;;;;5030070;28;20419;-71
2022/07/13 10:50:57;;;;;;;0.50;0.50;;;27.60;61.20;;;;;;5029204;28;20414;-71
2022/07/13 10:53:50;;;;;;;0.40;0.20;;;27.70;61.50;;;;;;4998786;28;20458;-68
2022/07/13 10:56:20;;;;;;;0.40;0.30;;;27.90;60.10;;;;;;5005942;28;20485;-71
2022/07/13 10:58:47;;;;;;;0.40;0.30;;;28.00;59.80;;;;;;5013395;28;20830;-70
2022/07/13 11:01:35;;;;;;;0.40;0.30;;;28.00;60.50;;;;;;5013064;28;20416;-71
2022/07/13 11:04:02;;;;;;;0.40;0.30;;;27.90;59.80;;;;;;5012746;28;20412;-71
2022/07/13 11:06:29;;;;;;;0.40;0.20;;;28.20;58.40;;;;;;5013838;28;20389;-68
2022/07/13 11:09:10;;;;;;;0.40;0.30;;;28.50;55.30;;;;;;5012757;28;20427;-71
2022/07/13 11:11:44;;;;;;;0.40;0.20;;;28.40;53.00;;;;;;5013607;28;20399;-68
2022/07/13 11:14:36;;;;;;;0.40;0.30;;;28.50;51.50;;;;;;5012562;28;20384;-71
2022/07/13 11:17:18;;;;;;;0.40;0.20;;;28.80;47.40;;;;;;5012575;28;20403;-71
2022/07/13 11:19:58;;;;;;;0.40;0.20;;;29.00;46.40;;;;;;5013449;28;20837;-70
2022/07/13 11:25:38;;;;;;;0.40;0.23;;;29.00;47.10;;;;;;5012820;28;20475;-71
2022/07/13 11:28:05;;;;;;;0.40;0.30;;;29.00;45.20;;;;;;5012444;28;20400;-71
2022/07/13 11:30:34;;;;;;;0.40;0.20;;;29.20;45.80;;;;;;5013185;28;20842;-71
2022/07/13 11:33:00;;;;;;;0.40;0.20;;;29.40;46.60;;;;;;5012383;28;20385;-71
2022/07/13 11:35:26;;;;;;;0.40;0.20;;;29.50;44.40;;;;;;5013089;28;20439;-71
2022/07/13 11:37:53;;;;;;;0.40;0.30;;;29.70;45.60;;;;;;5012589;28;20390;-71
2022/07/13 11:40:32;;;;;;;0.40;0.30;;;30.20;44.10;;;;;;5012968;28;20403;-70
2022/07/13 11:43:00;;;;;;;0.40;0.30;;;30.70;41.40;;;;;;5027901;28;20456;-68
2022/07/13 11:45:30;;;;;;;0.40;0.20;;;30.30;42.20;;;;;;5032588;28;20388;-71
2022/07/13 11:47:58;;;;;;;0.40;0.20;;;30.80;41.60;;;;;;5031803;28;20444;-71
2022/07/13 11:50:50;;;;;;;0.40;0.20;;;30.80;40.40;;;;;;5032250;28;20415;-71
2022/07/13 11:53:25;;;;;;;0.40;0.20;;;30.90;38.90;;;;;;5017956;28;20451;-71
2022/07/13 11:55:51;;;;;;;0.40;0.20;;;31.50;36.50;;;;;;5012443;28;20483;-72
2022/07/13 11:58:28;;;;;;;0.40;0.20;;;31.90;36.20;;;;;;5012027;28;20499;-72
2022/07/13 12:00:54;;;;;;;0.40;0.20;;;32.50;33.90;;;;;;5012035;28;20381;-72
2022/07/13 12:03:27;;;;;;;0.40;0.20;;;33.00;32.50;;;;;;5012733;28;20475;-72
2022/07/13 12:05:58;;;;;;;0.40;0.20;;;32.90;30.40;;;;;;5011750;28;20898;-72
2022/07/13 12:08:25;;;;;;;0.40;0.20;;;33.80;31.60;;;;;;5012484;28;20381;-71
2022/07/13 12:10:51;;;;;;;0.40;0.20;;;33.40;33.10;;;;;;5012471;28;20454;-72
2022/07/13 12:13:17;;;;;;;0.40;0.20;;;33.70;29.20;;;;;;5011593;28;20392;-68
2022/07/13 12:15:44;;;;;;;0.40;0.20;;;33.30;27.70;;;;;;5012334;28;20476;-72
2022/07/13 12:18:12;;;;;;;0.40;0.20;;;32.80;29.30;;;;;;5011450;28;20385;-71
2022/07/13 12:20:38;;;;;;;0.40;0.20;;;32.70;30.00;;;;;;5012277;28;20389;-72
2022/07/13 12:23:08;;;;;;;0.40;0.20;;;32.80;28.60;;;;;;5014903;28;20393;-72
2022/07/13 12:25:41;;;;;;;0.40;0.20;;;32.20;29.30;;;;;;5029947;28;20403;-71
2022/07/13 12:28:09;;;;;;;0.40;0.20;;;33.10;27.80;;;;;;5030310;28;20395;-70
2022/07/13 12:30:37;;;;;;;0.40;0.20;;;33.40;26.30;;;;;;5031540;28;20874;-72
2022/07/13 12:33:03;;;;;;;0.40;0.20;;;32.50;25.70;;;;;;5030914;28;20759;-72
2022/07/13 12:35:37;;;;;;;0.40;0.20;;;32.40;26.20;;;;;;5031795;28;20478;-71
2022/07/13 12:38:11;;;;;;;0.40;0.20;;;31.70;25.20;;;;;;5024264;28;20474;-72
2022/07/13 12:40:51;;;;;;;0.40;0.20;;;32.00;26.90;;;;;;5011964;28;20416;-72
2022/07/13 12:43:22;;;;;;;0.40;0.20;;;32.30;26.00;;;;;;5010968;28;20818;-72
2022/07/13 12:45:53;;;;;;;0.40;0.20;;;31.70;26.60;;;;;;5011792;28;20404;-72
2022/07/13 12:48:23;;;;;;;0.40;0.20;;;31.80;27.50;;;;;;5016662;28;20417;-71
2022/07/13 12:51:05;;;;;;;0.40;0.20;;;32.00;28.50;;;;;;5018477;28;20397;-71
2022/07/13 12:53:50;;;;;;;0.40;0.20;;;32.20;26.60;;;;;;5030989;28;20395;-71
2022/07/13 12:56:18;;;;;;;0.40;0.20;;;32.40;28.20;;;;;;5030696;28;20466;-71
2022/07/13 12:58:49;;;;;;;0.40;0.20;;;32.50;27.90;;;;;;5031051;28;20455;-72
2022/07/13 13:01:36;;;;;;;0.40;0.20;;;32.40;24.80;;;;;;5022938;28;20470;-71
2022/07/13 13:04:07;;;;;;;0.40;0.20;;;31.80;26.90;;;;;;5010720;28;20512;-72